Time;durP1;ratioP1;P1;durP2;ratioP2;P2;SDS_P1;SDS_P2;PMS_P1;PMS_P2;Temp;Humidity;BMP_temperature;BMP_pressure;BME280_temperature;BME280_humidity;BME280_pressure;Samples;Min_cycle;Max_cycle;Signal;HPM_P1;HPM_P2
2024/01/17 00:00:27;;;;;;;;;;;;;;;;;;5157055;28;19977;-57
2024/01/17 00:02:58;;;;;;;;;;;;;;;;;;5161553;28;19926;-57
2024/01/17 00:05:29;;;;;;;;;;;;;;;;;;5160003;28;19926;-58
2024/01/17 00:08:00;;;;;;;;;;;;;;;;;;5145301;28;19976;-57
2024/01/17 00:10:31;;;;;;;;;;;;;;;;;;5159332;28;19926;-58
2024/01/17 00:13:02;;;;;;;;;;;;;;;;;;5159870;28;19929;-58
2024/01/17 00:15:33;;;;;;;;;;;;;;;;;;5161110;28;20021;-58
2024/01/17 00:18:04;;;;;;;;;;;;;;;;;;5133193;28;20409;-60
2024/01/17 00:20:35;;;;;;;;;;;;;;;;;;5160382;28;19977;-57
2024/01/17 00:23:06;;;;;;;;;;;;;;;;;;5173845;28;19923;-58
2024/01/17 00:25:37;;;;;;;;;;;;;;;;;;5161456;28;20297;-58
2024/01/17 00:28:08;;;;;;;;;;;;;;;;;;5161526;28;19968;-58
2024/01/17 00:30:39;;;;;;;;;;;;;;;;;;5160933;28;19929;-58
2024/01/17 00:33:10;;;;;;;;;;;;;;;;;;5160741;28;19980;-59
2024/01/17 00:35:41;;;;;;;;;;;;;;;;;;5160296;28;19973;-58
2024/01/17 00:38:12;;;;;;;;;;;;;;;;;;5161580;28;19925;-58
2024/01/17 00:40:43;;;;;;;;;;;;;;;;;;5161406;28;19933;-58
2024/01/17 00:43:14;;;;;;;;;;;;;;;;;;5161587;28;20524;-58
2024/01/17 00:45:46;;;;;;;;;;;;;;;;;;5161175;28;19925;-57
2024/01/17 00:48:18;;;;;;;;;;;;;;;;;;5161182;28;20362;-57
2024/01/17 00:50:49;;;;;;;;;;;;;;;;;;5141436;28;19981;-58
2024/01/17 00:53:22;;;;;;;;;;;;;;;;;;5170173;28;20351;-58
2024/01/17 00:55:53;;;;;;;;;;;;;;;;;;5160765;28;19926;-57
2024/01/17 00:58:24;;;;;;;;;;;;;;;;;;5160992;28;19946;-60
2024/01/17 01:00:55;;;;;;;;;;;;;;;;;;5170659;28;19933;-60
2024/01/17 01:03:26;;;;;;;;;;;;;;;;;;5177262;28;19922;-58
2024/01/17 01:05:57;;;;;;;;;;;;;;;;;;5160769;28;19933;-59
2024/01/17 01:08:28;;;;;;;;;;;;;;;;;;5144286;28;19989;-60
2024/01/17 01:10:59;;;;;;;;;;;;;;;;;;5162569;28;20273;-60
2024/01/17 01:13:30;;;;;;;;;;;;;;;;;;5162262;28;19923;-59
2024/01/17 01:16:03;;;;;;;;;;;;;;;;;;5157890;28;20285;-60
2024/01/17 01:18:35;;;;;;;;;;;;;;;;;;5167627;28;19921;-58
2024/01/17 01:21:06;;;;;;;;;;;;;;;;;;5174907;28;20381;-59
2024/01/17 01:23:37;;;;;;;;;;;;;;;;;;5137188;28;19922;-58
2024/01/17 01:26:08;;;;;;;;;;;;;;;;;;5169317;28;19949;-58
2024/01/17 01:28:39;;;;;;;;;;;;;;;;;;5131223;28;19922;-57
2024/01/17 01:31:10;;;;;;;;;;;;;;;;;;5155354;28;19930;-58
2024/01/17 01:33:41;;;;;;;;;;;;;;;;;;5175082;28;19976;-58
2024/01/17 01:36:12;;;;;;;;;;;;;;;;;;5136918;28;19929;-58
2024/01/17 01:38:43;;;;;;;;;;;;;;;;;;5140937;28;20420;-58
2024/01/17 01:41:14;;;;;;;;;;;;;;;;;;5131699;28;19922;-57
2024/01/17 01:43:45;;;;;;;;;;;;;;;;;;5157051;28;19973;-58
2024/01/17 01:46:16;;;;;;;;;;;;;;;;;;5163450;28;19929;-58
2024/01/17 01:48:48;;;;;;;;;;;;;;;;;;5158464;28;19930;-58
2024/01/17 01:51:19;;;;;;;;;;;;;;;;;;5159684;28;19923;-59
2024/01/17 01:53:50;;;;;;;;;;;;;;;;;;5159469;28;20052;-58
2024/01/17 01:56:21;;;;;;;;;;;;;;;;;;5159678;28;19929;-58
2024/01/17 01:58:52;;;;;;;;;;;;;;;;;;5159318;28;20004;-58
2024/01/17 02:01:23;;;;;;;;;;;;;;;;;;5159336;28;20061;-58
2024/01/17 02:03:54;;;;;;;;;;;;;;;;;;5159292;28;20004;-58
2024/01/17 02:06:25;;;;;;;;;;;;;;;;;;5143643;28;20386;-58
2024/01/17 02:08:56;;;;;;;;;;;;;;;;;;5159459;28;19922;-58
2024/01/17 02:11:28;;;;;;;;;;;;;;;;;;5152265;28;19929;-57
2024/01/17 02:13:59;;;;;;;;;;;;;;;;;;5158993;28;19930;-58
2024/01/17 02:16:30;;;;;;;;;;;;;;;;;;5158972;28;19926;-57
2024/01/17 02:19:01;;;;;;;;;;;;;;;;;;5175811;28;19929;-57
2024/01/17 02:21:32;;;;;;;;;;;;;;;;;;5159389;28;19930;-57
2024/01/17 02:24:03;;;;;;;;;;;;;;;;;;5159237;28;20001;-59
2024/01/17 02:26:34;;;;;;;;;;;;;;;;;;5171291;28;19980;-59
2024/01/17 02:29:05;;;;;;;;;;;;;;;;;;5157916;28;20004;-59
2024/01/17 02:31:36;;;;;;;;;;;;;;;;;;5147771;28;19923;-59
2024/01/17 02:34:07;;;;;;;;;;;;;;;;;;5142772;28;20084;-59
2024/01/17 02:36:38;;;;;;;;;;;;;;;;;;5159176;28;20394;-59
2024/01/17 02:39:09;;;;;;;;;;;;;;;;;;5159371;28;20098;-58
2024/01/17 02:41:40;;;;;;;;;;;;;;;;;;5152742;28;19930;-57
2024/01/17 02:44:11;;;;;;;;;;;;;;;;;;5151127;28;20089;-58
2024/01/17 02:46:42;;;;;;;;;;;;;;;;;;5158955;28;20036;-58
2024/01/17 02:49:19;;;;;;;;;;;;;;;;;;5159175;28;20379;-58
2024/01/17 02:51:50;;;;;;;;;;;;;;;;;;5158894;28;20285;-59
2024/01/17 02:54:21;;;;;;;;;;;;;;;;;;5149233;28;19973;-58
2024/01/17 02:56:52;;;;;;;;;;;;;;;;;;5142254;28;19969;-58
2024/01/17 02:59:23;;;;;;;;;;;;;;;;;;5148110;28;19940;-58
2024/01/17 03:01:54;;;;;;;;;;;;;;;;;;5160375;28;19926;-58
2024/01/17 03:04:25;;;;;;;;;;;;;;;;;;5153583;28;20345;-58
2024/01/17 03:06:56;;;;;;;;;;;;;;;;;;5171020;28;19922;-57
2024/01/17 03:09:27;;;;;;;;;;;;;;;;;;5165433;28;20016;-57
2024/01/17 03:11:58;;;;;;;;;;;;;;;;;;5165743;28;19926;-57
2024/01/17 03:14:31;;;;;;;;;;;;;;;;;;5165293;28;19933;-58
2024/01/17 03:17:02;;;;;;;;;;;;;;;;;;5149127;28;20427;-58
2024/01/17 03:19:33;;;;;;;;;;;;;;;;;;5165340;28;19977;-58
2024/01/17 03:22:04;;;;;;;;;;;;;;;;;;5151597;28;19923;-58
2024/01/17 03:24:35;;;;;;;;;;;;;;;;;;5162890;28;20482;-58
2024/01/17 03:27:07;;;;;;;;;;;;;;;;;;5176874;28;19930;-59
2024/01/17 03:29:38;;;;;;;;;;;;;;;;;;5159530;28;20377;-59
2024/01/17 03:32:09;;;;;;;;;;;;;;;;;;5158518;28;20325;-58
2024/01/17 03:34:40;;;;;;;;;;;;;;;;;;5124626;28;19965;-59
2024/01/17 03:37:11;;;;;;;;;;;;;;;;;;5163228;28;19945;-59
2024/01/17 03:39:42;;;;;;;;;;;;;;;;;;5164997;28;20009;-60
2024/01/17 03:42:16;;;;;;;;;;;;;;;;;;5162242;28;20024;-59
2024/01/17 03:44:47;;;;;;;;;;;;;;;;;;5164698;28;19957;-59
2024/01/17 03:47:18;;;;;;;;;;;;;;;;;;5165281;28;20317;-60
2024/01/17 03:49:49;;;;;;;;;;;;;;;;;;5177180;28;20266;-59
2024/01/17 03:52:20;;;;;;;;;;;;;;;;;;5148555;28;19930;-60
2024/01/17 03:54:51;;;;;;;;;;;;;;;;;;5164492;28;19926;-59
2024/01/17 03:57:22;;;;;;;;;;;;;;;;;;5149107;28;19926;-59
2024/01/17 03:59:53;;;;;;;;;;;;;;;;;;5165412;28;19953;-59
2024/01/17 04:02:25;;;;;;;;;;;;;;;;;;5141641;28;20406;-59
2024/01/17 04:04:56;;;;;;;;;;;;;;;;;;5164773;28;19922;-59
2024/01/17 04:07:28;;;;;;;;;;;;;;;;;;5165747;28;19957;-59
2024/01/17 04:09:59;;;;;;;;;;;;;;;;;;5163418;28;20013;-59
2024/01/17 04:12:30;;;;;;;;;;;;;;;;;;5144119;28;20293;-60
2024/01/17 04:15:02;;;;;;;;;;;;;;;;;;5161518;28;19927;-58
2024/01/17 04:17:33;;;;;;;;;;;;;;;;;;5176998;28;19922;-58
2024/01/17 04:20:04;;;;;;;;;;;;;;;;;;5163986;28;20353;-58
2024/01/17 04:22:35;;;;;;;;;;;;;;;;;;5159252;28;19936;-58
2024/01/17 04:25:06;;;;;;;;;;;;;;;;;;5157082;28;19937;-58
2024/01/17 04:27:37;;;;;;;;;;;;;;;;;;5138610;28;19944;-57
2024/01/17 04:30:08;;;;;;;;;;;;;;;;;;5162169;28;19944;-58
2024/01/17 04:32:39;;;;;;;;;;;;;;;;;;5120632;28;19922;-58
2024/01/17 04:35:11;;;;;;;;;;;;;;;;;;5160712;28;19926;-57
2024/01/17 04:37:42;;;;;;;;;;;;;;;;;;5160886;28;19922;-57
2024/01/17 04:40:13;;;;;;;;;;;;;;;;;;5144929;28;19939;-59
2024/01/17 04:42:48;;;;;;;;;;;;;;;;;;5145028;28;19922;-59
2024/01/17 04:45:19;;;;;;;;;;;;;;;;;;5158467;28;19957;-58
2024/01/17 04:47:50;;;;;;;;;;;;;;;;;;5163477;28;20121;-59
2024/01/17 04:50:21;;;;;;;;;;;;;;;;;;5160764;28;20078;-59
2024/01/17 04:52:52;;;;;;;;;;;;;;;;;;5164868;28;20020;-59
2024/01/17 04:55:23;;;;;;;;;;;;;;;;;;5167999;28;19985;-58
2024/01/17 04:57:54;;;;;;;;;;;;;;;;;;5160619;28;20400;-57
2024/01/17 05:00:25;;;;;;;;;;;;;;;;;;5158838;28;19922;-57
2024/01/17 05:02:56;;;;;;;;;;;;;;;;;;5137471;28;19949;-57
2024/01/17 05:05:27;;;;;;;;;;;;;;;;;;5163771;28;19926;-57
2024/01/17 05:07:58;;;;;;;;;;;;;;;;;;5160603;28;19922;-58
2024/01/17 05:10:30;;;;;;;;;;;;;;;;;;5150831;28;19930;-56
2024/01/17 05:13:01;;;;;;;;;;;;;;;;;;5170237;28;19922;-58
2024/01/17 05:15:32;;;;;;;;;;;;;;;;;;5159098;28;19926;-57
2024/01/17 05:18:04;;;;;;;;;;;;;;;;;;5158876;28;19922;-58
2024/01/17 05:20:35;;;;;;;;;;;;;;;;;;5157722;28;20282;-58
2024/01/17 05:23:06;;;;;;;;;;;;;;;;;;5157338;28;19929;-58
2024/01/17 05:25:37;;;;;;;;;;;;;;;;;;5149777;28;19922;-58
2024/01/17 05:28:08;;;;;;;;;;;;;;;;;;5132351;28;19933;-58
2024/01/17 05:30:39;;;;;;;;;;;;;;;;;;5169878;28;19930;-58
2024/01/17 05:33:10;;;;;;;;;;;;;;;;;;5159854;28;19922;-57
2024/01/17 05:35:41;;;;;;;;;;;;;;;;;;5157526;28;19926;-57
2024/01/17 05:38:12;;;;;;;;;;;;;;;;;;5155085;28;19926;-58
2024/01/17 05:40:43;;;;;;;;;;;;;;;;;;5142744;28;19934;-57
2024/01/17 05:43:14;;;;;;;;;;;;;;;;;;5163021;28;19933;-57
2024/01/17 05:45:45;;;;;;;;;;;;;;;;;;5159313;28;20377;-57
2024/01/17 05:48:16;;;;;;;;;;;;;;;;;;5156828;28;19930;-57
2024/01/17 05:50:47;;;;;;;;;;;;;;;;;;5159461;28;20385;-57
2024/01/17 05:53:18;;;;;;;;;;;;;;;;;;5159008;28;19925;-57
2024/01/17 05:55:49;;;;;;;;;;;;;;;;;;5159405;28;20032;-57
2024/01/17 05:58:20;;;;;;;;;;;;;;;;;;5150930;28;20378;-58
2024/01/17 06:00:51;;;;;;;;;;;;;;;;;;5158141;28;19929;-58
2024/01/17 06:03:22;;;;;;;;;;;;;;;;;;5143111;28;19926;-58
2024/01/17 06:05:54;;;;;;;;;;;;;;;;;;5144653;28;19929;-58
2024/01/17 06:08:25;;;;;;;;;;;;;;;;;;5126755;28;19922;-57
2024/01/17 06:10:56;;;;;;;;;;;;;;;;;;5159904;28;19929;-57
2024/01/17 06:13:27;;;;;;;;;;;;;;;;;;5159202;28;19922;-57
2024/01/17 06:15:58;;;;;;;;;;;;;;;;;;5159500;28;20403;-58
2024/01/17 06:18:29;;;;;;;;;;;;;;;;;;5155771;28;19930;-57
2024/01/17 06:21:00;;;;;;;;;;;;;;;;;;5159358;28;19989;-57
2024/01/17 06:23:31;;;;;;;;;;;;;;;;;;5141367;28;19926;-56
2024/01/17 06:26:03;;;;;;;;;;;;;;;;;;5153380;28;19922;-57
2024/01/17 06:28:35;;;;;;;;;;;;;;;;;;5128147;28;19922;-57
2024/01/17 06:31:06;;;;;;;;;;;;;;;;;;5159528;28;20267;-58
2024/01/17 06:33:37;;;;;;;;;;;;;;;;;;5142291;28;20009;-57
2024/01/17 06:36:08;;;;;;;;;;;;;;;;;;5159191;28;20312;-57
2024/01/17 06:38:39;;;;;;;;;;;;;;;;;;5138229;28;19930;-57
2024/01/17 06:41:10;;;;;;;;;;;;;;;;;;5143057;28;19930;-57
2024/01/17 06:43:41;;;;;;;;;;;;;;;;;;5159041;28;19941;-58
2024/01/17 06:46:12;;;;;;;;;;;;;;;;;;5158798;28;20274;-57
2024/01/17 06:48:43;;;;;;;;;;;;;;;;;;5158878;28;19922;-57
2024/01/17 06:51:14;;;;;;;;;;;;;;;;;;5144073;28;20246;-57
2024/01/17 06:53:45;;;;;;;;;;;;;;;;;;5143882;28;19929;-57
2024/01/17 06:56:16;;;;;;;;;;;;;;;;;;5158326;28;19990;-56
2024/01/17 06:58:47;;;;;;;;;;;;;;;;;;5157147;28;20199;-57
2024/01/17 07:01:18;;;;;;;;;;;;;;;;;;5143786;28;20004;-58
2024/01/17 07:03:49;;;;;;;;;;;;;;;;;;5158382;28;19926;-57
2024/01/17 07:06:20;;;;;;;;;;;;;;;;;;5126312;28;19950;-56
2024/01/17 07:08:51;;;;;;;;;;;;;;;;;;5142408;28;19945;-57
2024/01/17 07:11:22;;;;;;;;;;;;;;;;;;5155119;28;19926;-57
2024/01/17 07:13:53;;;;;;;;;;;;;;;;;;5157118;28;19926;-56
2024/01/17 07:16:24;;;;;;;;;;;;;;;;;;5143838;28;20024;-58
2024/01/17 07:18:57;;;;;;;;;;;;;;;;;;5158492;28;19929;-58
2024/01/17 07:21:28;;;;;;;;;;;;;;;;;;5142412;28;20761;-58
2024/01/17 07:23:59;;;;;;;;;;;;;;;;;;5158679;28;19934;-58
2024/01/17 07:26:30;;;;;;;;;;;;;;;;;;5148904;28;19929;-59
2024/01/17 07:29:01;;;;;;;;;;;;;;;;;;5157990;28;20018;-58
2024/01/17 07:31:32;;;;;;;;;;;;;;;;;;5141013;28;20013;-57
2024/01/17 07:34:03;;;;;;;;;;;;;;;;;;5156482;28;20053;-57
2024/01/17 07:36:34;;;;;;;;;;;;;;;;;;5132931;28;19930;-57
2024/01/17 07:39:05;;;;;;;;;;;;;;;;;;5154383;28;19938;-57
2024/01/17 07:41:36;;;;;;;;;;;;;;;;;;5158028;28;19922;-56
2024/01/17 07:44:07;;;;;;;;;;;;;;;;;;5153081;28;19922;-56
2024/01/17 07:46:38;;;;;;;;;;;;;;;;;;5142353;28;19929;-56
2024/01/17 07:49:09;;;;;;;;;;;;;;;;;;5161172;28;19948;-57
2024/01/17 07:51:40;;;;;;;;;;;;;;;;;;5144317;28;20301;-57
2024/01/17 07:54:11;;;;;;;;;;;;;;;;;;5129054;28;19933;-58
2024/01/17 07:56:43;;;;;;;;;;;;;;;;;;5162187;28;19929;-58
2024/01/17 07:59:14;;;;;;;;;;;;;;;;;;5161807;28;19922;-56
2024/01/17 08:01:45;;;;;;;;;;;;;;;;;;5161805;28;19957;-58
2024/01/17 08:04:16;;;;;;;;;;;;;;;;;;5162000;28;19957;-56
2024/01/17 08:06:47;;;;;;;;;;;;;;;;;;5161285;28;19976;-56
2024/01/17 08:09:21;;;;;;;;;;;;;;;;;;5161548;28;19922;-56
2024/01/17 08:11:52;;;;;;;;;;;;;;;;;;5124143;28;20323;-56
2024/01/17 08:14:24;;;;;;;;;;;;;;;;;;5146431;28;19930;-56
2024/01/17 08:16:55;;;;;;;;;;;;;;;;;;5159902;28;19949;-56
2024/01/17 08:19:26;;;;;;;;;;;;;;;;;;5160010;28;19948;-57
2024/01/17 08:21:58;;;;;;;;;;;;;;;;;;5160802;28;19930;-56
2024/01/17 08:24:28;;;;;;;;;;;;;;;;;;5159935;28;19930;-57
2024/01/17 08:26:59;;;;;;;;;;;;;;;;;;5172202;28;20000;-56
2024/01/17 08:29:31;;;;;;;;;;;;;;;;;;5160217;28;19922;-56
2024/01/17 08:32:02;;;;;;;;;;;;;;;;;;5154877;28;19929;-56
2024/01/17 08:34:33;;;;;;;;;;;;;;;;;;5160178;28;20366;-56
2024/01/17 08:37:04;;;;;;;;;;;;;;;;;;5160443;28;19922;-56
2024/01/17 08:39:36;;;;;;;;;;;;;;;;;;5134865;28;19922;-56
2024/01/17 08:42:07;;;;;;;;;;;;;;;;;;5161018;28;20002;-57
2024/01/17 08:44:38;;;;;;;;;;;;;;;;;;5161510;28;19981;-57
2024/01/17 08:47:09;;;;;;;;;;;;;;;;;;5160532;28;20012;-57
2024/01/17 08:49:40;;;;;;;;;;;;;;;;;;5145058;28;20269;-56
2024/01/17 08:52:11;;;;;;;;;;;;;;;;;;5157429;28;19992;-55
2024/01/17 08:54:42;;;;;;;;;;;;;;;;;;5145972;28;19930;-56
2024/01/17 08:57:15;;;;;;;;;;;;;;;;;;5159289;28;21367;-57
2024/01/17 08:59:46;;;;;;;;;;;;;;;;;;5160778;28;20021;-56
2024/01/17 09:02:17;;;;;;;;;;;;;;;;;;5160952;28;19973;-56
2024/01/17 09:04:48;;;;;;;;;;;;;;;;;;5160422;28;20008;-55
2024/01/17 09:07:19;;;;;;;;;;;;;;;;;;5160629;28;20021;-54
2024/01/17 09:09:50;;;;;;;;;;;;;;;;;;5143084;28;21015;-56
2024/01/17 09:12:22;;;;;;;;;;;;;;;;;;5150600;28;20000;-55
2024/01/17 09:14:54;;;;;;;;;;;;;;;;;;5160266;28;20020;-56
2024/01/17 09:17:25;;;;;;;;;;;;;;;;;;5160176;28;19930;-55
2024/01/17 09:19:56;;;;;;;;;;;;;;;;;;5145384;28;19948;-56
2024/01/17 09:22:27;;;;;;;;;;;;;;;;;;5144092;28;20001;-57
2024/01/17 09:25:02;;;;;;;;;;;;;;;;;;5161698;28;19925;-55
2024/01/17 09:27:33;;;;;;;;;;;;;;;;;;5137691;28;19938;-56
2024/01/17 09:30:04;;;;;;;;;;;;;;;;;;5143710;28;19922;-56
2024/01/17 09:32:37;;;;;;;;;;;;;;;;;;5160018;28;19926;-56
2024/01/17 09:35:11;;;;;;;;;;;;;;;;;;5160001;28;19926;-56
2024/01/17 09:37:42;;;;;;;;;;;;;;;;;;5143504;28;19997;-56
2024/01/17 09:40:13;;;;;;;;;;;;;;;;;;5160292;28;19941;-56
2024/01/17 09:42:44;;;;;;;;;;;;;;;;;;5159863;28;19930;-56
2024/01/17 09:45:15;;;;;;;;;;;;;;;;;;5135302;28;19922;-56
2024/01/17 09:47:46;;;;;;;;;;;;;;;;;;5149083;28;20021;-57
2024/01/17 09:50:17;;;;;;;;;;;;;;;;;;5159623;28;19933;-56
2024/01/17 09:52:48;;;;;;;;;;;;;;;;;;5159553;28;20417;-56
2024/01/17 09:55:19;;;;;;;;;;;;;;;;;;5127564;28;19926;-55
2024/01/17 09:57:50;;;;;;;;;;;;;;;;;;5144398;28;19925;-56
2024/01/17 10:00:21;;;;;;;;;;;;;;;;;;5127522;28;20313;-56
2024/01/17 10:02:52;;;;;;;;;;;;;;;;;;5143192;28;19986;-56
2024/01/17 10:05:23;;;;;;;;;;;;;;;;;;5142895;28;19929;-56
2024/01/17 10:07:55;;;;;;;;;;;;;;;;;;5126504;28;20660;-56
2024/01/17 10:10:27;;;;;;;;;;;;;;;;;;5144672;28;20334;-57
2024/01/17 10:12:58;;;;;;;;;;;;;;;;;;5121788;28;20291;-57
2024/01/17 10:15:32;;;;;;;;;;;;;;;;;;5144072;28;19937;-57
2024/01/17 10:18:03;;;;;;;;;;;;;;;;;;5159568;28;20381;-57
2024/01/17 10:20:34;;;;;;;;;;;;;;;;;;5137653;28;20010;-57
2024/01/17 10:23:05;;;;;;;;;;;;;;;;;;5144205;28;20385;-58
2024/01/17 10:25:36;;;;;;;;;;;;;;;;;;5160810;28;20000;-57
2024/01/17 10:28:07;;;;;;;;;;;;;;;;;;5132120;28;19944;-57
2024/01/17 10:30:41;;;;;;;;;;;;;;;;;;5159331;28;19945;-57
2024/01/17 10:33:12;;;;;;;;;;;;;;;;;;5143917;28;19948;-57
2024/01/17 10:35:43;;;;;;;;;;;;;;;;;;5158980;28;20315;-57
2024/01/17 10:38:14;;;;;;;;;;;;;;;;;;5158869;28;19973;-57
2024/01/17 10:40:45;;;;;;;;;;;;;;;;;;5133652;28;19961;-58
2024/01/17 10:43:16;;;;;;;;;;;;;;;;;;5142784;28;19922;-57
2024/01/17 10:45:49;;;;;;;;;;;;;;;;;;5143720;28;19929;-56
2024/01/17 10:48:22;;;;;;;;;;;;;;;;;;5158767;28;19951;-57
2024/01/17 10:50:53;;;;;;;;;;;;;;;;;;5141903;28;20021;-56
2024/01/17 10:53:26;;;;;;;;;;;;;;;;;;5143565;28;19945;-56
2024/01/17 10:55:57;;;;;;;;;;;;;;;;;;5143452;28;20005;-56
2024/01/17 10:58:28;;;;;;;;;;;;;;;;;;5155051;28;20009;-56
2024/01/17 11:00:59;;;;;;;;;;;;;;;;;;5158930;28;19926;-56
2024/01/17 11:03:30;;;;;;;;;;;;;;;;;;5126455;28;19930;-55
2024/01/17 11:06:02;;;;;;;;;;;;;;;;;;5126403;28;19926;-56
2024/01/17 11:08:33;;;;;;;;;;;;;;;;;;5143363;28;20385;-57
2024/01/17 11:11:05;;;;;;;;;;;;;;;;;;5158746;28;20016;-56
2024/01/17 11:13:36;;;;;;;;;;;;;;;;;;5158689;28;19985;-56
2024/01/17 11:16:07;;;;;;;;;;;;;;;;;;5158699;28;19933;-56
2024/01/17 11:18:38;;;;;;;;;;;;;;;;;;5156710;28;19922;-56
2024/01/17 11:21:09;;;;;;;;;;;;;;;;;;5147824;28;19977;-56
2024/01/17 11:23:40;;;;;;;;;;;;;;;;;;5162888;28;19988;-56
2024/01/17 11:26:11;;;;;;;;;;;;;;;;;;5174093;28;20004;-56
2024/01/17 11:28:42;;;;;;;;;;;;;;;;;;5126642;28;19926;-56
2024/01/17 11:31:13;;;;;;;;;;;;;;;;;;5151073;28;20005;-56
2024/01/17 11:33:44;;;;;;;;;;;;;;;;;;5144076;28;20332;-56
2024/01/17 11:36:15;;;;;;;;;;;;;;;;;;5162055;28;20017;-56
2024/01/17 11:38:46;;;;;;;;;;;;;;;;;;5145974;28;20362;-57
2024/01/17 11:41:17;;;;;;;;;;;;;;;;;;5146109;28;19922;-57
2024/01/17 11:43:48;;;;;;;;;;;;;;;;;;5147085;28;20285;-56
2024/01/17 11:46:19;;;;;;;;;;;;;;;;;;5161240;28;19926;-55
2024/01/17 11:48:50;;;;;;;;;;;;;;;;;;5145787;28;19922;-57
2024/01/17 11:51:22;;;;;;;;;;;;;;;;;;5162023;28;19929;-56
2024/01/17 11:53:53;;;;;;;;;;;;;;;;;;5145389;28;19934;-57
2024/01/17 11:56:25;;;;;;;;;;;;;;;;;;5162283;28;20388;-56
2024/01/17 11:58:56;;;;;;;;;;;;;;;;;;5139341;28;20494;-56
2024/01/17 12:01:27;;;;;;;;;;;;;;;;;;5146794;28;19922;-55
2024/01/17 12:03:58;;;;;;;;;;;;;;;;;;5161356;28;20417;-56
2024/01/17 12:06:29;;;;;;;;;;;;;;;;;;5161821;28;19984;-56
2024/01/17 12:09:01;;;;;;;;;;;;;;;;;;5145224;28;19922;-57
2024/01/17 12:11:32;;;;;;;;;;;;;;;;;;5159793;28;19930;-57
2024/01/17 12:14:03;;;;;;;;;;;;;;;;;;5146577;28;19929;-56
2024/01/17 12:16:34;;;;;;;;;;;;;;;;;;5161550;28;19923;-55
2024/01/17 12:19:05;;;;;;;;;;;;;;;;;;5146285;28;19923;-55
2024/01/17 12:21:36;;;;;;;;;;;;;;;;;;5161258;28;20285;-56
2024/01/17 12:24:07;;;;;;;;;;;;;;;;;;5146583;28;19922;-56
2024/01/17 12:26:38;;;;;;;;;;;;;;;;;;5156836;28;19984;-57
2024/01/17 12:29:09;;;;;;;;;;;;;;;;;;5146382;28;19922;-56
2024/01/17 12:31:41;;;;;;;;;;;;;;;;;;5123723;28;19922;-57
2024/01/17 12:34:12;;;;;;;;;;;;;;;;;;5146433;28;19930;-57
2024/01/17 12:36:43;;;;;;;;;;;;;;;;;;5161036;28;19922;-57
2024/01/17 12:39:14;;;;;;;;;;;;;;;;;;5160968;28;19926;-57
2024/01/17 12:41:45;;;;;;;;;;;;;;;;;;5161264;28;20328;-57
2024/01/17 12:44:16;;;;;;;;;;;;;;;;;;5146028;28;19922;-57
2024/01/17 12:46:47;;;;;;;;;;;;;;;;;;5146140;28;19929;-57
2024/01/17 12:49:18;;;;;;;;;;;;;;;;;;5146103;28;19936;-57
2024/01/17 12:51:49;;;;;;;;;;;;;;;;;;5146293;28;20373;-57
2024/01/17 12:54:21;;;;;;;;;;;;;;;;;;5154055;28;19926;-57
2024/01/17 12:56:54;;;;;;;;;;;;;;;;;;5128638;28;20274;-57
2024/01/17 12:59:25;;;;;;;;;;;;;;;;;;5160547;28;20063;-58
2024/01/17 13:01:59;;;;;;;;;;;;;;;;;;5160006;28;20401;-57
2024/01/17 13:04:31;;;;;;;;;;;;;;;;;;5145883;28;19922;-57
2024/01/17 13:07:02;;;;;;;;;;;;;;;;;;5144800;28;19922;-57
2024/01/17 13:09:33;;;;;;;;;;;;;;;;;;5142126;28;19929;-56
2024/01/17 13:12:05;;;;;;;;;;;;;;;;;;5141818;28;19922;-56
2024/01/17 13:14:36;;;;;;;;;;;;;;;;;;5141408;28;20306;-55
2024/01/17 13:17:07;;;;;;;;;;;;;;;;;;5145551;28;19945;-56
2024/01/17 13:19:38;;;;;;;;;;;;;;;;;;5145388;28;20415;-56
2024/01/17 13:22:09;;;;;;;;;;;;;;;;;;5159957;28;19922;-57
2024/01/17 13:24:40;;;;;;;;;;;;;;;;;;5160295;28;19926;-56
2024/01/17 13:27:12;;;;;;;;;;;;;;;;;;5172239;28;19926;-55
2024/01/17 13:29:44;;;;;;;;;;;;;;;;;;5143548;28;20020;-55
2024/01/17 13:32:15;;;;;;;;;;;;;;;;;;5145338;28;20005;-56
2024/01/17 13:34:46;;;;;;;;;;;;;;;;;;5129966;28;20430;-56
2024/01/17 13:37:20;;;;;;;;;;;;;;;;;;5160082;28;19929;-56
2024/01/17 13:39:51;;;;;;;;;;;;;;;;;;5159928;28;19965;-55
2024/01/17 13:42:22;;;;;;;;;;;;;;;;;;5160326;28;19926;-55
2024/01/17 13:44:53;;;;;;;;;;;;;;;;;;5159795;28;19929;-56
2024/01/17 13:47:24;;;;;;;;;;;;;;;;;;5144943;28;19929;-58
2024/01/17 13:50:00;;;;;;;;;;;;;;;;;;5145012;28;20437;-57
2024/01/17 13:52:36;;;;;;;;;;;;;;;;;;5159738;28;20080;-57
2024/01/17 13:55:07;;;;;;;;;;;;;;;;;;5140953;28;19933;-55
2024/01/17 13:57:38;;;;;;;;;;;;;;;;;;5159777;28;20253;-56
2024/01/17 14:00:09;;;;;;;;;;;;;;;;;;5159974;28;19942;-56
2024/01/17 14:02:42;;;;;;;;;;;;;;;;;;5123434;29;19922;-57
2024/01/17 14:05:13;;;;;;;;;;;;;;;;;;5137410;28;19976;-57
2024/01/17 14:07:44;;;;;;;;;;;;;;;;;;5144683;28;19933;-57
2024/01/17 14:10:15;;;;;;;;;;;;;;;;;;5144683;28;19922;-55
2024/01/17 14:12:46;;;;;;;;;;;;;;;;;;5157354;28;19980;-56
2024/01/17 14:15:19;;;;;;;;;;;;;;;;;;5139750;28;20004;-56
2024/01/17 14:17:50;;;;;;;;;;;;;;;;;;5155574;28;20021;-57
2024/01/17 14:20:21;;;;;;;;;;;;;;;;;;5153656;28;19940;-56
2024/01/17 14:22:53;;;;;;;;;;;;;;;;;;5119256;28;20247;-57
2024/01/17 14:25:24;;;;;;;;;;;;;;;;;;5165138;28;19926;-57
2024/01/17 14:27:55;;;;;;;;;;;;;;;;;;5150902;28;20246;-59
2024/01/17 14:30:29;;;;;;;;;;;;;;;;;;5142926;28;19934;-57
2024/01/17 14:33:00;;;;;;;;;;;;;;;;;;5124695;28;19930;-55
2024/01/17 14:35:31;;;;;;;;;;;;;;;;;;5142485;28;19930;-57
2024/01/17 14:38:02;;;;;;;;;;;;;;;;;;5157351;28;19978;-56
2024/01/17 14:40:33;;;;;;;;;;;;;;;;;;5143794;28;19922;-56
2024/01/17 14:43:05;;;;;;;;;;;;;;;;;;5159255;28;20013;-55
2024/01/17 14:45:36;;;;;;;;;;;;;;;;;;5138784;28;20429;-56
2024/01/17 14:48:07;;;;;;;;;;;;;;;;;;5141970;28;20384;-56
2024/01/17 14:50:38;;;;;;;;;;;;;;;;;;5137409;28;19930;-55
2024/01/17 14:53:11;;;;;;;;;;;;;;;;;;5137187;28;20378;-57
2024/01/17 14:55:42;;;;;;;;;;;;;;;;;;5142114;28;19932;-55
2024/01/17 14:58:13;;;;;;;;;;;;;;;;;;5155029;28;19922;-56
2024/01/17 15:00:44;;;;;;;;;;;;;;;;;;5142633;28;19922;-56
2024/01/17 15:03:15;;;;;;;;;;;;;;;;;;5158624;28;19922;-56
2024/01/17 15:05:46;;;;;;;;;;;;;;;;;;5158692;28;19926;-56
2024/01/17 15:08:18;;;;;;;;;;;;;;;;;;5141888;28;19922;-56
2024/01/17 15:10:49;;;;;;;;;;;;;;;;;;5139676;28;19932;-56
2024/01/17 15:13:21;;;;;;;;;;;;;;;;;;5143820;28;20008;-56
2024/01/17 15:15:52;;;;;;;;;;;;;;;;;;5158151;28;19926;-57
2024/01/17 15:18:23;;;;;;;;;;;;;;;;;;5158806;28;20319;-57
2024/01/17 15:20:54;;;;;;;;;;;;;;;;;;5143402;28;20278;-57
2024/01/17 15:23:26;;;;;;;;;;;;;;;;;;5142348;28;19929;-57
2024/01/17 15:25:57;;;;;;;;;;;;;;;;;;5152289;28;19933;-56
2024/01/17 15:28:28;;;;;;;;;;;;;;;;;;5126270;28;19929;-57
2024/01/17 15:30:59;;;;;;;;;;;;;;;;;;5158635;28;20286;-56
2024/01/17 15:33:30;;;;;;;;;;;;;;;;;;5158413;28;19926;-57
2024/01/17 15:36:02;;;;;;;;;;;;;;;;;;5142040;28;19926;-56
2024/01/17 15:38:35;;;;;;;;;;;;;;;;;;5158413;28;19922;-57
2024/01/17 15:41:09;;;;;;;;;;;;;;;;;;5142969;28;19922;-56
2024/01/17 15:43:39;;;;;;;;;;;;;;;;;;5143629;28;19929;-57
2024/01/17 15:46:11;;;;;;;;;;;;;;;;;;5156808;28;19926;-57
2024/01/17 15:48:42;;;;;;;;;;;;;;;;;;5149930;28;20274;-57
2024/01/17 15:51:16;;;;;;;;;;;;;;;;;;5143321;28;19926;-57
2024/01/17 15:53:47;;;;;;;;;;;;;;;;;;5157884;28;20386;-57
2024/01/17 15:56:18;;;;;;;;;;;;;;;;;;5141187;28;20385;-56
2024/01/17 15:58:50;;;;;;;;;;;;;;;;;;5141972;28;20061;-56
2024/01/17 16:01:20;;;;;;;;;;;;;;;;;;5108315;28;20382;-56
2024/01/17 16:03:51;;;;;;;;;;;;;;;;;;5152048;28;19926;-55
2024/01/17 16:06:22;;;;;;;;;;;;;;;;;;5139027;28;19945;-56
2024/01/17 16:08:53;;;;;;;;;;;;;;;;;;5152476;28;19963;-56
2024/01/17 16:11:24;;;;;;;;;;;;;;;;;;5160608;28;19933;-55
2024/01/17 16:13:56;;;;;;;;;;;;;;;;;;5160945;28;19922;-55
2024/01/17 16:16:27;;;;;;;;;;;;;;;;;;5145247;28;19926;-56
2024/01/17 16:18:58;;;;;;;;;;;;;;;;;;5153813;28;20381;-56
2024/01/17 16:21:30;;;;;;;;;;;;;;;;;;5134133;28;20096;-55
2024/01/17 16:24:02;;;;;;;;;;;;;;;;;;5157695;28;19923;-54
2024/01/17 16:26:33;;;;;;;;;;;;;;;;;;5166599;28;19939;-53
2024/01/17 16:29:04;;;;;;;;;;;;;;;;;;5159606;28;19949;-55
2024/01/17 16:31:35;;;;;;;;;;;;;;;;;;5158897;28;20389;-56
2024/01/17 16:34:06;;;;;;;;;;;;;;;;;;5158839;28;19967;-55
2024/01/17 16:36:37;;;;;;;;;;;;;;;;;;5158273;28;19968;-57
2024/01/17 16:39:11;;;;;;;;;;;;;;;;;;5160047;28;20024;-57
2024/01/17 16:41:42;;;;;;;;;;;;;;;;;;5160802;28;19922;-56
2024/01/17 16:44:13;;;;;;;;;;;;;;;;;;5159947;28;20285;-56
2024/01/17 16:46:44;;;;;;;;;;;;;;;;;;5144457;28;19953;-56
2024/01/17 16:49:15;;;;;;;;;;;;;;;;;;5105212;28;19926;-56
2024/01/17 16:51:46;;;;;;;;;;;;;;;;;;5135523;28;19923;-56
2024/01/17 16:54:17;;;;;;;;;;;;;;;;;;5142541;28;19929;-56
2024/01/17 16:56:48;;;;;;;;;;;;;;;;;;5141526;28;19998;-56
2024/01/17 16:59:19;;;;;;;;;;;;;;;;;;5175749;28;20100;-56
2024/01/17 17:01:51;;;;;;;;;;;;;;;;;;5159188;28;20413;-56
2024/01/17 17:04:21;;;;;;;;;;;;;;;;;;5148387;28;20029;-56
2024/01/17 17:06:53;;;;;;;;;;;;;;;;;;5157478;28;20024;-56
2024/01/17 17:09:24;;;;;;;;;;;;;;;;;;5142179;28;19922;-56
2024/01/17 17:11:55;;;;;;;;;;;;;;;;;;5143468;28;19930;-56